Woodworth, LA (71485)

2:23 PM CDT on April 29, 2017 (GMT -0500)
Cherokee Village | | Change Station

Elev 77 ft 31.26 °N, 92.48 °W | Updated 9 seconds ago

Overcast
Overcast
80.4 °F
Feels Like 83 °F
N
0.0
Wind Variable Wind from WSW
Gusts 0.0 mph

Today
High -- | Low -- °F
--% Chance of Precip.
Yesterday
High -- | Low -- °F
Precip. -- in
Pressure 29.78 in
Visibility 8.0 miles
Clouds Scattered Clouds 3600 ft
Scattered Clouds 4500 ft
Mostly Cloudy 6000 ft
Heat Index 83 °F
Dew Point 69 °F
Humidity 69%
Rainfall 0.00 in
Snow Depth Not available.
6:27 AM 7:48 PM
Waxing Crescent, 16% visible
METAR KAEX 291853Z 16013G25KT 8SM VCTS SCT036 SCT045 BKN060 27/22 A2977 RMK AO2 LTG DSNT W-N SLP083 T02720217 $
Pressure 29.78 in
Visibility 8.0 miles
Clouds Scattered Clouds 3600 ft
Scattered Clouds 4500 ft
Mostly Cloudy 6000 ft
Heat Index 83 °F
Dew Point 69 °F
Humidity 69%
Rainfall 0.00 in
Snow Depth Not available.
6:27 AM 7:48 PM
Waxing Crescent, 16% visible
METAR KAEX 291853Z 16013G25KT 8SM VCTS SCT036 SCT045 BKN060 27/22 A2977 RMK AO2 LTG DSNT W-N SLP083 T02720217 $

Get Severe Weather Alerts

Thanks for signing up!

Be on the lookout for a verification email in your inbox.

You'll start receiving the daily forecast at 8 AM.

×

10-Day Weather Forecast

Almanac

Astronomy

Apr. 29, 2017 Rise Set
Actual Time
Civil Twilight
Nautical Twilight
Astronomical Twilight
Moon
Length of Visible Light
Length of Day
Tomorrow will be .
, % of the Moon is Illuminated

Today's Extremes

State Highs State Lows

Community

WunderPhotos

WunderBlog® & News

Nearby

Air Quality

  Air Quality AQ Index Pollutant
Not available.

Snow Depth

Station Depth Elevation

Earthquake Activity

City Distance Mag. Time & Date
Minimum magnitude displayed is 2.5.

Coastal Water Temperatures

Place Temperature

Stations

Nearby Weather Stations

Station Location Temp. Windchill Dew Point Humidity Wind Precip. Elev Updated Type
                   

Watches & Warnings

There are currently no watches in effect.